sensor_id;sensor_type;location;lat;lon;timestamp;pressure;altitude;pressure_sealevel;temperature;humidity
12676;BME280;63820;65.654;21.944;2023-06-26T00:00:33;101638.13;;;13.00;100.00
12676;BME280;63820;65.654;21.944;2023-06-26T00:03:17;101633.91;;;12.96;100.00
12676;BME280;63820;65.654;21.944;2023-06-26T00:06:01;101627.03;;;12.93;100.00
12676;BME280;63820;65.654;21.944;2023-06-26T00:08:45;101632.25;;;12.93;100.00
12676;BME280;63820;65.654;21.944;2023-06-26T00:11:29;101627.03;;;12.93;100.00
12676;BME280;63820;65.654;21.944;2023-06-26T00:14:17;101627.03;;;12.93;100.00
12676;BME280;63820;65.654;21.944;2023-06-26T00:17:04;101633.22;;;12.91;100.00
12676;BME280;63820;65.654;21.944;2023-06-26T00:19:50;101629.84;;;12.87;100.00
12676;BME280;63820;65.654;21.944;2023-06-26T00:22:35;101626.50;;;12.84;100.00
12676;BME280;63820;65.654;21.944;2023-06-26T00:25:19;101632.78;;;12.78;100.00
12676;BME280;63820;65.654;21.944;2023-06-26T00:28:03;101631.28;;;12.71;100.00
12676;BME280;63820;65.654;21.944;2023-06-26T00:30:47;101629.69;;;12.67;100.00
12676;BME280;63820;65.654;21.944;2023-06-26T00:33:31;101622.94;;;12.60;100.00
12676;BME280;63820;65.654;21.944;2023-06-26T00:36:15;101624.75;;;12.58;100.00
12676;BME280;63820;65.654;21.944;2023-06-26T00:38:59;101628.28;;;12.57;100.00
12676;BME280;63820;65.654;21.944;2023-06-26T00:41:43;101624.00;;;12.54;100.00
12676;BME280;63820;65.654;21.944;2023-06-26T00:44:27;101617.94;;;12.54;100.00
12676;BME280;63820;65.654;21.944;2023-06-26T00:47:14;101620.63;;;12.51;100.00
12676;BME280;63820;65.654;21.944;2023-06-26T00:49:59;101622.25;;;12.55;100.00
12676;BME280;63820;65.654;21.944;2023-06-26T00:52:44;101623.09;;;12.55;100.00
12676;BME280;63820;65.654;21.944;2023-06-26T00:55:29;101611.00;;;12.53;100.00
12676;BME280;63820;65.654;21.944;2023-06-26T00:58:13;101616.97;;;12.56;100.00
12676;BME280;63820;65.654;21.944;2023-06-26T01:00:57;101612.50;;;12.60;100.00
12676;BME280;63820;65.654;21.944;2023-06-26T01:03:43;101610.78;;;12.59;100.00
12676;BME280;63820;65.654;21.944;2023-06-26T01:06:29;101615.00;;;12.63;100.00
12676;BME280;63820;65.654;21.944;2023-06-26T01:09:17;101618.47;;;12.63;100.00
12676;BME280;63820;65.654;21.944;2023-06-26T01:12:02;101619.34;;;12.64;100.00
12676;BME280;63820;65.654;21.944;2023-06-26T01:14:46;101613.31;;;12.62;100.00
12676;BME280;63820;65.654;21.944;2023-06-26T01:17:31;101616.00;;;12.59;100.00
12676;BME280;63820;65.654;21.944;2023-06-26T01:20:16;101619.63;;;12.55;100.00
12676;BME280;63820;65.654;21.944;2023-06-26T01:23:10;101624.97;;;12.52;100.00
12676;BME280;63820;65.654;21.944;2023-06-26T01:28:53;101617.22;;;12.49;100.00
12676;BME280;63820;65.654;21.944;2023-06-26T01:31:37;101617.22;;;12.49;100.00
12676;BME280;63820;65.654;21.944;2023-06-26T01:34:21;101613.72;;;12.50;100.00
12676;BME280;63820;65.654;21.944;2023-06-26T01:37:06;101621.09;;;12.63;100.00
12676;BME280;63820;65.654;21.944;2023-06-26T01:39:50;101619.06;;;12.71;100.00
12676;BME280;63820;65.654;21.944;2023-06-26T01:42:34;101623.13;;;12.80;100.00
12676;BME280;63820;65.654;21.944;2023-06-26T01:45:24;101625.66;;;12.83;100.00
12676;BME280;63820;65.654;21.944;2023-06-26T01:48:12;101620.31;;;12.86;100.00
12676;BME280;63820;65.654;21.944;2023-06-26T01:50:58;101627.25;;;12.87;100.00
12676;BME280;63820;65.654;21.944;2023-06-26T01:53:46;101621.13;;;12.88;100.00
12676;BME280;63820;65.654;21.944;2023-06-26T01:56:38;101617.44;;;12.94;100.00
12676;BME280;63820;65.654;21.944;2023-06-26T01:59:25;101620.00;;;12.95;100.00
12676;BME280;63820;65.654;21.944;2023-06-26T02:02:12;101615.56;;;12.97;100.00
12676;BME280;63820;65.654;21.944;2023-06-26T02:04:56;101622.47;;;13.00;100.00
12676;BME280;63820;65.654;21.944;2023-06-26T02:07:40;101616.16;;;13.05;100.00
12676;BME280;63820;65.654;21.944;2023-06-26T02:10:24;101620.22;;;13.14;100.00
12676;BME280;63820;65.654;21.944;2023-06-26T02:13:08;101609.69;;;13.16;100.00
12676;BME280;63820;65.654;21.944;2023-06-26T02:15:52;101615.53;;;13.24;100.00
12676;BME280;63820;65.654;21.944;2023-06-26T02:18:36;101616.34;;;13.26;100.00
12676;BME280;63820;65.654;21.944;2023-06-26T02:21:20;101611.00;;;13.29;100.00
12676;BME280;63820;65.654;21.944;2023-06-26T02:24:05;101611.69;;;13.34;100.00
12676;BME280;63820;65.654;21.944;2023-06-26T02:26:49;101611.47;;;13.40;100.00
12676;BME280;63820;65.654;21.944;2023-06-26T02:29:33;101616.47;;;13.46;100.00
12676;BME280;63820;65.654;21.944;2023-06-26T02:32:17;101600.53;;;13.52;100.00
12676;BME280;63820;65.654;21.944;2023-06-26T02:35:01;101602.00;;;13.59;100.00
12676;BME280;63820;65.654;21.944;2023-06-26T02:37:46;101599.94;;;13.67;100.00
12676;BME280;63820;65.654;21.944;2023-06-26T02:40:30;101601.38;;;13.76;100.00
12676;BME280;63820;65.654;21.944;2023-06-26T02:43:14;101594.06;;;13.84;100.00
12676;BME280;63820;65.654;21.944;2023-06-26T02:45:58;101596.50;;;13.89;100.00
12676;BME280;63820;65.654;21.944;2023-06-26T02:48:42;101602.41;;;13.94;100.00
12676;BME280;63820;65.654;21.944;2023-06-26T02:51:26;101600.47;;;13.99;100.00
12676;BME280;63820;65.654;21.944;2023-06-26T02:54:10;101589.03;;;14.01;100.00
12676;BME280;63820;65.654;21.944;2023-06-26T02:56:54;101588.78;;;14.07;100.00
12676;BME280;63820;65.654;21.944;2023-06-26T02:59:38;101597.19;;;14.16;100.00
12676;BME280;63820;65.654;21.944;2023-06-26T03:02:23;101604.63;;;14.26;100.00
12676;BME280;63820;65.654;21.944;2023-06-26T03:05:07;101595.53;;;14.35;100.00
12676;BME280;63820;65.654;21.944;2023-06-26T03:07:52;101597.06;;;14.40;100.00
12676;BME280;63820;65.654;21.944;2023-06-26T03:10:36;101598.41;;;14.51;100.00
12676;BME280;63820;65.654;21.944;2023-06-26T03:13:20;101603.53;;;14.54;100.00
12676;BME280;63820;65.654;21.944;2023-06-26T03:16:04;101602.25;;;14.62;100.00
12676;BME280;63820;65.654;21.944;2023-06-26T03:18:49;101605.41;;;14.70;100.00
12676;BME280;63820;65.654;21.944;2023-06-26T03:21:33;101607.03;;;14.73;100.00
12676;BME280;63820;65.654;21.944;2023-06-26T03:24:17;101605.09;;;14.78;100.00
12676;BME280;63820;65.654;21.944;2023-06-26T03:27:01;101605.69;;;14.85;100.00
12676;BME280;63820;65.654;21.944;2023-06-26T03:29:46;101603.44;;;14.96;100.00
12676;BME280;63820;65.654;21.944;2023-06-26T03:32:30;101608.16;;;15.08;100.00
12676;BME280;63820;65.654;21.944;2023-06-26T03:35:14;101611.81;;;15.24;100.00
12676;BME280;63820;65.654;21.944;2023-06-26T03:37:58;101611.84;;;15.43;100.00
12676;BME280;63820;65.654;21.944;2023-06-26T03:40:44;101602.56;;;15.74;100.00
12676;BME280;63820;65.654;21.944;2023-06-26T03:43:28;101606.41;;;16.21;100.00
12676;BME280;63820;65.654;21.944;2023-06-26T03:46:12;101613.13;;;16.80;100.00
12676;BME280;63820;65.654;21.944;2023-06-26T03:48:56;101597.38;;;17.46;100.00
12676;BME280;63820;65.654;21.944;2023-06-26T03:51:40;101597.66;;;18.05;100.00
12676;BME280;63820;65.654;21.944;2023-06-26T03:54:25;101597.66;;;18.94;100.00
12676;BME280;63820;65.654;21.944;2023-06-26T03:57:09;101597.84;;;20.04;100.00
12676;BME280;63820;65.654;21.944;2023-06-26T03:59:53;101602.75;;;20.76;100.00
12676;BME280;63820;65.654;21.944;2023-06-26T04:02:37;101602.97;;;21.24;100.00
12676;BME280;63820;65.654;21.944;2023-06-26T04:05:23;101588.50;;;21.66;100.00
12676;BME280;63820;65.654;21.944;2023-06-26T04:08:07;101593.88;;;22.25;100.00
12676;BME280;63820;65.654;21.944;2023-06-26T04:10:52;101588.69;;;22.59;100.00
12676;BME280;63820;65.654;21.944;2023-06-26T04:13:37;101597.13;;;22.88;100.00
12676;BME280;63820;65.654;21.944;2023-06-26T04:16:21;101588.25;;;22.76;100.00
12676;BME280;63820;65.654;21.944;2023-06-26T04:19:09;101583.72;;;23.00;100.00
12676;BME280;63820;65.654;21.944;2023-06-26T04:21:53;101583.00;;;22.87;100.00
12676;BME280;63820;65.654;21.944;2023-06-26T04:24:37;101582.41;;;23.17;100.00
12676;BME280;63820;65.654;21.944;2023-06-26T04:27:21;101578.16;;;22.92;100.00
12676;BME280;63820;65.654;21.944;2023-06-26T04:30:06;101586.38;;;23.34;100.00
12676;BME280;63820;65.654;21.944;2023-06-26T04:32:50;101581.56;;;23.28;100.00
12676;BME280;63820;65.654;21.944;2023-06-26T04:35:34;101581.06;;;23.34;100.00
12676;BME280;63820;65.654;21.944;2023-06-26T04:38:20;101581.19;;;23.43;100.00
12676;BME280;63820;65.654;21.944;2023-06-26T04:41:05;101583.97;;;23.64;100.00
12676;BME280;63820;65.654;21.944;2023-06-26T04:43:49;101572.75;;;23.61;100.00
12676;BME280;63820;65.654;21.944;2023-06-26T04:46:33;101569.13;;;23.17;100.00
12676;BME280;63820;65.654;21.944;2023-06-26T04:49:17;101568.88;;;22.98;100.00
12676;BME280;63820;65.654;21.944;2023-06-26T04:52:01;101558.84;;;22.33;100.00
12676;BME280;63820;65.654;21.944;2023-06-26T04:54:46;101565.84;;;22.10;100.00
12676;BME280;63820;65.654;21.944;2023-06-26T04:57:30;101560.59;;;21.73;100.00
12676;BME280;63820;65.654;21.944;2023-06-26T05:00:15;101566.84;;;21.23;100.00
12676;BME280;63820;65.654;21.944;2023-06-26T05:02:59;101559.66;;;20.74;100.00
12676;BME280;63820;65.654;21.944;2023-06-26T05:05:45;101542.84;;;20.23;100.00
12676;BME280;63820;65.654;21.944;2023-06-26T05:08:29;101565.34;;;20.16;100.00
12676;BME280;63820;65.654;21.944;2023-06-26T05:11:13;101555.72;;;20.15;100.00
12676;BME280;63820;65.654;21.944;2023-06-26T05:13:57;101562.41;;;20.20;100.00
12676;BME280;63820;65.654;21.944;2023-06-26T05:16:41;101554.50;;;20.33;100.00
12676;BME280;63820;65.654;21.944;2023-06-26T05:19:25;101554.56;;;20.59;100.00
12676;BME280;63820;65.654;21.944;2023-06-26T05:22:10;101555.31;;;20.99;100.00
12676;BME280;63820;65.654;21.944;2023-06-26T05:24:56;101549.66;;;21.41;100.00
12676;BME280;63820;65.654;21.944;2023-06-26T05:27:43;101551.78;;;22.21;100.00
12676;BME280;63820;65.654;21.944;2023-06-26T05:30:28;101555.09;;;22.93;100.00
12676;BME280;63820;65.654;21.944;2023-06-26T05:33:13;101554.63;;;23.55;100.00
12676;BME280;63820;65.654;21.944;2023-06-26T05:35:59;101552.22;;;24.27;100.00
12676;BME280;63820;65.654;21.944;2023-06-26T05:38:44;101553.84;;;24.81;100.00
12676;BME280;63820;65.654;21.944;2023-06-26T05:41:28;101549.47;;;25.81;100.00
12676;BME280;63820;65.654;21.944;2023-06-26T05:44:12;101548.19;;;26.52;99.16
12676;BME280;63820;65.654;21.944;2023-06-26T05:46:57;101557.13;;;27.17;88.86
12676;BME280;63820;65.654;21.944;2023-06-26T05:49:41;101547.97;;;27.92;85.19
12676;BME280;63820;65.654;21.944;2023-06-26T05:52:25;101549.84;;;28.18;76.88
12676;BME280;63820;65.654;21.944;2023-06-26T05:55:11;101553.88;;;28.57;73.68
12676;BME280;63820;65.654;21.944;2023-06-26T05:57:58;101552.66;;;28.78;71.76
12676;BME280;63820;65.654;21.944;2023-06-26T06:00:43;101554.38;;;29.55;68.27
12676;BME280;63820;65.654;21.944;2023-06-26T06:03:27;101552.38;;;29.57;65.28
12676;BME280;63820;65.654;21.944;2023-06-26T06:06:11;101551.78;;;29.96;64.54
12676;BME280;63820;65.654;21.944;2023-06-26T06:08:55;101548.09;;;30.62;60.93
12676;BME280;63820;65.654;21.944;2023-06-26T06:11:40;101538.97;;;30.87;58.16
12676;BME280;63820;65.654;21.944;2023-06-26T06:14:24;101545.47;;;31.40;58.02
12676;BME280;63820;65.654;21.944;2023-06-26T06:17:08;101542.25;;;31.75;55.74
12676;BME280;63820;65.654;21.944;2023-06-26T06:19:52;101536.88;;;32.21;48.09
12676;BME280;63820;65.654;21.944;2023-06-26T06:22:36;101535.16;;;32.43;50.70
12676;BME280;63820;65.654;21.944;2023-06-26T06:25:21;101538.53;;;32.74;44.70
12676;BME280;63820;65.654;21.944;2023-06-26T06:28:05;101544.84;;;32.67;45.51
12676;BME280;63820;65.654;21.944;2023-06-26T06:30:49;101539.75;;;33.01;46.59
12676;BME280;63820;65.654;21.944;2023-06-26T06:33:33;101535.06;;;33.97;46.58
12676;BME280;63820;65.654;21.944;2023-06-26T06:36:18;101534.25;;;33.60;46.20
12676;BME280;63820;65.654;21.944;2023-06-26T06:39:02;101534.31;;;33.31;45.42
12676;BME280;63820;65.654;21.944;2023-06-26T06:41:47;101528.59;;;33.76;44.06
12676;BME280;63820;65.654;21.944;2023-06-26T06:44:31;101525.41;;;33.15;44.54
12676;BME280;63820;65.654;21.944;2023-06-26T06:47:15;101520.78;;;34.03;44.00
12676;BME280;63820;65.654;21.944;2023-06-26T06:50:01;101522.66;;;33.81;44.11
12676;BME280;63820;65.654;21.944;2023-06-26T06:52:54;101524.34;;;35.35;42.41
12676;BME280;63820;65.654;21.944;2023-06-26T06:55:39;101515.53;;;34.51;41.14
12676;BME280;63820;65.654;21.944;2023-06-26T06:58:23;101520.88;;;34.72;41.11
12676;BME280;63820;65.654;21.944;2023-06-26T07:01:12;101505.88;;;35.11;39.22
12676;BME280;63820;65.654;21.944;2023-06-26T07:03:56;101516.09;;;35.83;41.00
12676;BME280;63820;65.654;21.944;2023-06-26T07:06:41;101513.53;;;35.55;39.30
12676;BME280;63820;65.654;21.944;2023-06-26T07:09:25;101505.59;;;34.92;41.18
12676;BME280;63820;65.654;21.944;2023-06-26T07:12:10;101508.31;;;35.53;37.95
12676;BME280;63820;65.654;21.944;2023-06-26T07:14:55;101511.78;;;34.52;38.65
12676;BME280;63820;65.654;21.944;2023-06-26T07:17:40;101505.63;;;34.99;38.71
12676;BME280;63820;65.654;21.944;2023-06-26T07:20:24;101504.97;;;35.51;38.09
12676;BME280;63820;65.654;21.944;2023-06-26T07:23:08;101511.47;;;35.77;36.92
12676;BME280;63820;65.654;21.944;2023-06-26T07:25:53;101500.97;;;33.96;40.21
12676;BME280;63820;65.654;21.944;2023-06-26T07:28:37;101487.72;;;33.22;40.76
12676;BME280;63820;65.654;21.944;2023-06-26T07:31:21;101488.50;;;32.05;43.50
12676;BME280;63820;65.654;21.944;2023-06-26T07:34:05;101496.47;;;32.36;43.90
12676;BME280;63820;65.654;21.944;2023-06-26T07:36:49;101487.97;;;32.76;43.45
12676;BME280;63820;65.654;21.944;2023-06-26T07:39:33;101487.47;;;31.68;46.11
12676;BME280;63820;65.654;21.944;2023-06-26T07:42:18;101480.16;;;30.84;47.12
12676;BME280;63820;65.654;21.944;2023-06-26T07:45:03;101481.59;;;32.40;44.22
12676;BME280;63820;65.654;21.944;2023-06-26T07:47:54;101481.81;;;34.47;43.76
12676;BME280;63820;65.654;21.944;2023-06-26T07:50:38;101485.25;;;35.84;42.27
12676;BME280;63820;65.654;21.944;2023-06-26T07:53:22;101473.59;;;34.68;38.85
12676;BME280;63820;65.654;21.944;2023-06-26T07:56:06;101486.28;;;36.22;37.39
12676;BME280;63820;65.654;21.944;2023-06-26T07:58:50;101472.69;;;36.42;35.02
12676;BME280;63820;65.654;21.944;2023-06-26T08:01:34;101472.94;;;36.98;34.89
12676;BME280;63820;65.654;21.944;2023-06-26T08:04:20;101467.19;;;35.23;38.62
12676;BME280;63820;65.654;21.944;2023-06-26T08:07:05;101471.88;;;36.22;36.26
12676;BME280;63820;65.654;21.944;2023-06-26T08:09:49;101471.91;;;36.02;36.64
12676;BME280;63820;65.654;21.944;2023-06-26T08:12:33;101472.47;;;36.44;34.05
12676;BME280;63820;65.654;21.944;2023-06-26T08:15:17;101458.56;;;36.07;36.26
12676;BME280;63820;65.654;21.944;2023-06-26T08:18:02;101468.78;;;36.05;35.55
12676;BME280;63820;65.654;21.944;2023-06-26T08:20:46;101463.75;;;35.76;34.60
12676;BME280;63820;65.654;21.944;2023-06-26T08:23:30;101452.09;;;36.01;34.83
12676;BME280;63820;65.654;21.944;2023-06-26T08:26:15;101452.28;;;35.60;34.73
12676;BME280;63820;65.654;21.944;2023-06-26T08:28:59;101454.63;;;36.87;34.38
12676;BME280;63820;65.654;21.944;2023-06-26T08:31:43;101450.78;;;36.44;34.52
12676;BME280;63820;65.654;21.944;2023-06-26T08:34:27;101458.25;;;36.55;31.85
12676;BME280;63820;65.654;21.944;2023-06-26T08:37:11;101445.38;;;34.08;35.31
12676;BME280;63820;65.654;21.944;2023-06-26T08:39:55;101438.13;;;35.98;34.37
12676;BME280;63820;65.654;21.944;2023-06-26T08:42:39;101438.28;;;37.88;31.53
12676;BME280;63820;65.654;21.944;2023-06-26T08:45:23;101438.56;;;38.05;33.56
12676;BME280;63820;65.654;21.944;2023-06-26T08:48:08;101442.47;;;38.16;30.52
12676;BME280;63820;65.654;21.944;2023-06-26T08:50:53;101438.31;;;35.50;33.40
12676;BME280;63820;65.654;21.944;2023-06-26T08:56:37;101441.03;;;36.16;33.49
12676;BME280;63820;65.654;21.944;2023-06-26T08:59:22;101430.63;;;36.00;34.35
12676;BME280;63820;65.654;21.944;2023-06-26T09:02:06;101431.00;;;35.44;34.91
12676;BME280;63820;65.654;21.944;2023-06-26T09:04:50;101436.56;;;36.48;33.64
12676;BME280;63820;65.654;21.944;2023-06-26T09:07:34;101429.16;;;35.97;34.45
12676;BME280;63820;65.654;21.944;2023-06-26T09:10:18;101421.03;;;34.42;35.60
12676;BME280;63820;65.654;21.944;2023-06-26T09:13:03;101422.53;;;34.86;34.37
12676;BME280;63820;65.654;21.944;2023-06-26T09:15:47;101415.13;;;34.67;35.99
12676;BME280;63820;65.654;21.944;2023-06-26T09:18:32;101423.44;;;34.24;35.50
12676;BME280;63820;65.654;21.944;2023-06-26T09:21:16;101412.69;;;34.37;36.82
12676;BME280;63820;65.654;21.944;2023-06-26T09:24:01;101406.06;;;33.56;36.39
12676;BME280;63820;65.654;21.944;2023-06-26T09:26:45;101407.34;;;33.39;37.34
12676;BME280;63820;65.654;21.944;2023-06-26T09:29:31;101404.97;;;34.00;36.45
12676;BME280;63820;65.654;21.944;2023-06-26T09:32:16;101401.53;;;34.13;37.33
12676;BME280;63820;65.654;21.944;2023-06-26T09:35:02;101404.69;;;35.05;36.32
12676;BME280;63820;65.654;21.944;2023-06-26T09:37:46;101400.06;;;34.92;35.07
12676;BME280;63820;65.654;21.944;2023-06-26T09:40:30;101396.44;;;35.59;35.55
12676;BME280;63820;65.654;21.944;2023-06-26T09:43:14;101390.41;;;34.76;36.79
12676;BME280;63820;65.654;21.944;2023-06-26T09:46:00;101392.53;;;36.53;33.24
12676;BME280;63820;65.654;21.944;2023-06-26T09:48:44;101387.34;;;37.52;32.19
12676;BME280;63820;65.654;21.944;2023-06-26T09:51:35;101377.25;;;35.28;34.52
12676;BME280;63820;65.654;21.944;2023-06-26T09:54:21;101378.69;;;33.38;36.56
12676;BME280;63820;65.654;21.944;2023-06-26T09:57:15;101379.22;;;34.04;35.95
12676;BME280;63820;65.654;21.944;2023-06-26T10:00:01;101374.72;;;35.20;36.55
12676;BME280;63820;65.654;21.944;2023-06-26T10:02:46;101372.19;;;34.98;36.85
12676;BME280;63820;65.654;21.944;2023-06-26T10:05:31;101371.06;;;32.84;38.29
12676;BME280;63820;65.654;21.944;2023-06-26T10:08:16;101369.34;;;33.62;37.21
12676;BME280;63820;65.654;21.944;2023-06-26T10:11:01;101376.72;;;33.74;37.22
12676;BME280;63820;65.654;21.944;2023-06-26T10:13:45;101372.03;;;32.32;38.22
12676;BME280;63820;65.654;21.944;2023-06-26T10:16:32;101377.41;;;32.03;39.24
12676;BME280;63820;65.654;21.944;2023-06-26T10:19:21;101366.34;;;32.57;39.54
12676;BME280;63820;65.654;21.944;2023-06-26T10:22:09;101365.69;;;33.27;37.97
12676;BME280;63820;65.654;21.944;2023-06-26T10:24:57;101375.81;;;34.23;36.84
12676;BME280;63820;65.654;21.944;2023-06-26T10:27:44;101371.75;;;34.88;36.50
12676;BME280;63820;65.654;21.944;2023-06-26T10:30:33;101371.91;;;34.32;36.12
12676;BME280;63820;65.654;21.944;2023-06-26T10:33:19;101370.13;;;34.53;35.33
12676;BME280;63820;65.654;21.944;2023-06-26T10:36:13;101357.63;;;34.04;37.25
12676;BME280;63820;65.654;21.944;2023-06-26T10:39:03;101368.94;;;34.21;36.03
12676;BME280;63820;65.654;21.944;2023-06-26T10:41:49;101366.56;;;34.46;36.03
12676;BME280;63820;65.654;21.944;2023-06-26T10:44:40;101361.72;;;33.01;37.22
12676;BME280;63820;65.654;21.944;2023-06-26T10:47:32;101356.22;;;32.59;38.07
12676;BME280;63820;65.654;21.944;2023-06-26T10:50:20;101348.59;;;33.20;39.19
12676;BME280;63820;65.654;21.944;2023-06-26T10:56:18;101352.50;;;32.45;39.13
12676;BME280;63820;65.654;21.944;2023-06-26T10:59:23;101342.63;;;32.67;38.60
12676;BME280;63820;65.654;21.944;2023-06-26T11:02:07;101347.97;;;32.96;38.26
12676;BME280;63820;65.654;21.944;2023-06-26T11:04:53;101349.72;;;32.38;38.09
12676;BME280;63820;65.654;21.944;2023-06-26T11:08:07;101350.81;;;32.59;39.28
12676;BME280;63820;65.654;21.944;2023-06-26T11:10:53;101347.53;;;31.60;39.09
12676;BME280;63820;65.654;21.944;2023-06-26T11:13:37;101344.91;;;31.52;40.62
12676;BME280;63820;65.654;21.944;2023-06-26T11:16:21;101334.94;;;30.61;40.83
12676;BME280;63820;65.654;21.944;2023-06-26T11:19:06;101333.97;;;30.46;43.97
12676;BME280;63820;65.654;21.944;2023-06-26T11:21:50;101340.19;;;30.46;43.13
12676;BME280;63820;65.654;21.944;2023-06-26T11:24:35;101340.03;;;29.84;44.01
12676;BME280;63820;65.654;21.944;2023-06-26T11:27:20;101338.38;;;29.26;44.01
12676;BME280;63820;65.654;21.944;2023-06-26T11:30:12;101339.88;;;29.29;44.32
12676;BME280;63820;65.654;21.944;2023-06-26T11:33:09;101337.41;;;29.44;43.29
12676;BME280;63820;65.654;21.944;2023-06-26T11:35:53;101340.38;;;29.00;45.18
12676;BME280;63820;65.654;21.944;2023-06-26T11:38:38;101335.00;;;28.92;47.25
12676;BME280;63820;65.654;21.944;2023-06-26T11:41:23;101341.72;;;29.37;45.22
12676;BME280;63820;65.654;21.944;2023-06-26T11:44:10;101324.97;;;28.18;46.66
12676;BME280;63820;65.654;21.944;2023-06-26T11:46:54;101340.00;;;28.11;48.07
12676;BME280;63820;65.654;21.944;2023-06-26T11:49:42;101328.75;;;28.33;48.17
12676;BME280;63820;65.654;21.944;2023-06-26T11:52:26;101329.06;;;28.30;50.25
12676;BME280;63820;65.654;21.944;2023-06-26T11:55:10;101320.78;;;28.15;49.65
12676;BME280;63820;65.654;21.944;2023-06-26T11:57:55;101327.75;;;27.74;49.42
12676;BME280;63820;65.654;21.944;2023-06-26T12:00:41;101319.31;;;27.87;49.46
12676;BME280;63820;65.654;21.944;2023-06-26T12:03:26;101319.16;;;28.64;49.01
12676;BME280;63820;65.654;21.944;2023-06-26T12:06:11;101324.97;;;27.84;51.72
12676;BME280;63820;65.654;21.944;2023-06-26T12:08:55;101311.84;;;27.73;51.63
12676;BME280;63820;65.654;21.944;2023-06-26T12:11:42;101302.94;;;27.90;52.13
12676;BME280;63820;65.654;21.944;2023-06-26T12:14:27;101313.63;;;27.46;51.19
12676;BME280;63820;65.654;21.944;2023-06-26T12:17:14;101305.50;;;26.94;53.69
12676;BME280;63820;65.654;21.944;2023-06-26T12:19:59;101311.75;;;27.39;52.67
12676;BME280;63820;65.654;21.944;2023-06-26T12:22:45;101315.84;;;27.94;50.93
12676;BME280;63820;65.654;21.944;2023-06-26T12:25:32;101309.91;;;27.21;53.56
12676;BME280;63820;65.654;21.944;2023-06-26T12:28:17;101302.75;;;26.41;54.53
12676;BME280;63820;65.654;21.944;2023-06-26T12:31:14;101302.69;;;26.51;57.30
12676;BME280;63820;65.654;21.944;2023-06-26T12:34:00;101303.25;;;26.99;57.67
12676;BME280;63820;65.654;21.944;2023-06-26T12:36:49;101303.72;;;27.39;56.11
12676;BME280;63820;65.654;21.944;2023-06-26T12:39:57;101294.72;;;27.04;56.78
12676;BME280;63820;65.654;21.944;2023-06-26T12:42:41;101293.34;;;27.18;58.67
12676;BME280;63820;65.654;21.944;2023-06-26T12:45:25;101287.25;;;27.25;57.85
12676;BME280;63820;65.654;21.944;2023-06-26T12:48:13;101286.13;;;27.54;57.34
12676;BME280;63820;65.654;21.944;2023-06-26T12:50:57;101286.44;;;27.51;54.11
12676;BME280;63820;65.654;21.944;2023-06-26T12:53:41;101282.09;;;26.61;55.88
12676;BME280;63820;65.654;21.944;2023-06-26T12:56:25;101285.34;;;26.37;57.97
12676;BME280;63820;65.654;21.944;2023-06-26T12:59:10;101277.72;;;26.42;59.54
12676;BME280;63820;65.654;21.944;2023-06-26T13:01:54;101281.75;;;26.74;55.76
12676;BME280;63820;65.654;21.944;2023-06-26T13:04:38;101271.72;;;27.03;57.19
12676;BME280;63820;65.654;21.944;2023-06-26T13:07:24;101268.78;;;27.14;55.39
12676;BME280;63820;65.654;21.944;2023-06-26T13:10:09;101253.88;;;26.31;57.15
12676;BME280;63820;65.654;21.944;2023-06-26T13:12:54;101258.13;;;26.24;58.93
12676;BME280;63820;65.654;21.944;2023-06-26T13:15:37;101250.59;;;26.64;60.72
12676;BME280;63820;65.654;21.944;2023-06-26T13:18:21;101250.38;;;26.76;54.88
12676;BME280;63820;65.654;21.944;2023-06-26T13:21:05;101240.22;;;26.06;55.25
12676;BME280;63820;65.654;21.944;2023-06-26T13:23:50;101237.88;;;25.76;57.00
12676;BME280;63820;65.654;21.944;2023-06-26T13:26:34;101236.13;;;25.28;59.23
12676;BME280;63820;65.654;21.944;2023-06-26T13:29:19;101226.03;;;25.22;61.67
12676;BME280;63820;65.654;21.944;2023-06-26T13:32:03;101209.78;;;25.06;60.99
12676;BME280;63820;65.654;21.944;2023-06-26T13:34:48;101211.03;;;25.21;60.59
12676;BME280;63820;65.654;21.944;2023-06-26T13:37:32;101208.88;;;25.44;62.64
12676;BME280;63820;65.654;21.944;2023-06-26T13:40:18;101213.41;;;25.24;63.08
12676;BME280;63820;65.654;21.944;2023-06-26T13:43:02;101213.16;;;25.08;61.32
12676;BME280;63820;65.654;21.944;2023-06-26T13:45:48;101227.84;;;24.54;64.21
12676;BME280;63820;65.654;21.944;2023-06-26T13:48:32;101219.19;;;24.71;66.79
12676;BME280;63820;65.654;21.944;2023-06-26T13:51:16;101220.44;;;24.67;66.61
12676;BME280;63820;65.654;21.944;2023-06-26T13:54:00;101210.06;;;24.55;70.54
12676;BME280;63820;65.654;21.944;2023-06-26T13:56:44;101207.41;;;24.64;66.92
12676;BME280;63820;65.654;21.944;2023-06-26T13:59:29;101216.09;;;24.76;66.83
12676;BME280;63820;65.654;21.944;2023-06-26T14:02:13;101219.19;;;24.71;65.70
12676;BME280;63820;65.654;21.944;2023-06-26T14:04:57;101204.59;;;24.56;64.95
12676;BME280;63820;65.654;21.944;2023-06-26T14:07:41;101201.16;;;24.25;68.02
12676;BME280;63820;65.654;21.944;2023-06-26T14:10:27;101207.28;;;24.56;66.14
12676;BME280;63820;65.654;21.944;2023-06-26T14:13:11;101198.31;;;24.76;67.86
12676;BME280;63820;65.654;21.944;2023-06-26T14:15:58;101189.84;;;25.29;66.17